Time;durP1;ratioP1;P1;durP2;ratioP2;P2;SDS_P1;SDS_P2;PMS_P1;PMS_P2;Temp;Humidity;BMP_temperature;BMP_pressure;BME280_temperature;BME280_humidity;BME280_pressure;Samples;Min_cycle;Max_cycle;Signal;HPM_P1;HPM_P2
2023/01/13 00:02:03;;;;;;;;;;;;;;;8.46;64.28;100127.16;5012755;28;19913;-86
2023/01/13 00:04:28;;;;;;;;;;;;;;;8.42;64.83;100120.13;5012076;28;19913;-86
2023/01/13 00:06:53;;;;;;;;;;;;;;;8.33;65.14;100112.22;5011938;28;20269;-86
2023/01/13 00:09:19;;;;;;;;;;;;;;;8.21;65.48;100113.09;5010951;28;19921;-86
2023/01/13 00:11:44;;;;;;;;;;;;;;;8.14;65.80;100114.84;5012075;28;19914;-86
2023/01/13 00:14:09;;;;;;;;;;;;;;;8.10;65.81;100118.31;5012638;28;19914;-87
2023/01/13 00:16:35;;;;;;;;;;;;;;;8.13;65.64;100118.31;5016301;28;20287;-87
2023/01/13 00:19:00;;;;;;;;;;;;;;;8.14;65.86;100112.22;5015602;28;20433;-87
2023/01/13 00:21:25;;;;;;;;;;;;;;;8.20;65.24;100111.31;5015391;28;19913;-88
2023/01/13 00:23:52;;;;;;;;;;;;;;;8.05;65.61;100110.44;5015768;28;19914;-86
2023/01/13 00:26:19;;;;;;;;;;;;;;;8.10;65.31;100109.56;5016043;28;19914;-87
2023/01/13 00:28:44;;;;;;;;;;;;;;;8.12;64.82;100116.56;5015676;28;19913;-87
2023/01/13 00:31:11;;;;;;;;;;;;;;;8.15;65.38;100107.81;5015195;28;20336;-87
2023/01/13 00:33:37;;;;;;;;;;;;;;;8.08;65.41;100109.56;5013871;28;20276;-86
2023/01/13 00:36:03;;;;;;;;;;;;;;;8.10;64.36;100117.44;5015730;28;19920;-85
2023/01/13 00:38:32;;;;;;;;;;;;;;;8.23;64.54;100117.47;5014518;28;20380;-85
2023/01/13 00:40:58;;;;;;;;;;;;;;;8.09;64.07;100118.31;5015645;28;19913;-86
2023/01/13 00:43:24;;;;;;;;;;;;;;;7.95;65.31;100116.53;5015028;28;19925;-87
2023/01/13 00:45:52;;;;;;;;;;;;;;;8.14;64.61;100114.84;5015234;28;19918;-87
2023/01/13 00:48:18;;;;;;;;;;;;;;;8.04;65.30;100111.28;5014990;28;19913;-87
2023/01/13 00:50:43;;;;;;;;;;;;;;;8.17;63.94;100108.69;5015369;28;19920;-86
2023/01/13 00:53:08;;;;;;;;;;;;;;;8.05;64.82;100109.56;5015104;28;20186;-86
2023/01/13 00:55:34;;;;;;;;;;;;;;;7.98;64.47;100113.91;5015533;28;19914;-85
2023/01/13 00:58:02;;;;;;;;;;;;;;;8.16;63.88;100105.19;5015013;28;19923;-85
2023/01/13 01:00:31;;;;;;;;;;;;;;;8.23;64.40;100109.59;5015253;28;19913;-85
2023/01/13 01:02:57;;;;;;;;;;;;;;;7.97;63.85;100106.91;5014482;28;19957;-85
2023/01/13 01:05:22;;;;;;;;;;;;;;;7.89;65.11;100108.63;5013866;28;20390;-85
2023/01/13 01:07:47;;;;;;;;;;;;;;;7.95;64.11;100098.13;5014727;28;20387;-85
2023/01/13 01:10:13;;;;;;;;;;;;;;;8.25;63.91;100104.34;5014594;28;20004;-85
2023/01/13 01:12:38;;;;;;;;;;;;;;;8.34;62.97;100100.81;5014676;28;19910;-85
2023/01/13 01:15:05;;;;;;;;;;;;;;;8.37;62.59;100095.56;5014419;28;19921;-85
2023/01/13 01:17:30;;;;;;;;;;;;;;;8.46;63.04;100100.00;5013387;28;19913;-85
2023/01/13 01:19:55;;;;;;;;;;;;;;;8.56;62.14;100100.00;5015098;28;19967;-86
2023/01/13 01:25:23;;;;;;;;;;;;;;;8.71;61.72;100100.84;5014552;28;19920;-86
2023/01/13 01:27:49;;;;;;;;;;;;;;;8.65;62.21;100098.22;5013350;28;19917;-85
2023/01/13 01:30:14;;;;;;;;;;;;;;;8.72;61.30;100098.22;5014921;28;20304;-86
2023/01/13 01:32:40;;;;;;;;;;;;;;;8.66;61.59;100092.09;5014410;28;19951;-85
2023/01/13 01:35:05;;;;;;;;;;;;;;;8.73;61.14;100101.75;5012955;28;20371;-85
2023/01/13 01:37:30;;;;;;;;;;;;;;;8.78;60.84;100097.34;5014089;28;19914;-85
2023/01/13 01:39:56;;;;;;;;;;;;;;;8.90;61.30;100099.97;5014601;28;19909;-85
2023/01/13 01:45:19;;;;;;;;;;;;;;;8.96;60.75;100097.31;5014454;28;19999;-85
2023/01/13 01:47:47;;;;;;;;;;;;;;;8.93;61.46;100099.09;5014027;28;19916;-85
2023/01/13 01:50:12;;;;;;;;;;;;;;;8.86;61.48;100102.59;5014133;28;19992;-87
2023/01/13 01:52:43;;;;;;;;;;;;;;;9.06;60.28;100107.81;5013965;28;19983;-86
2023/01/13 01:55:14;;;;;;;;;;;;;;;8.98;60.62;100104.34;5014049;28;19920;-85
2023/01/13 02:00:41;;;;;;;;;;;;;;;8.90;62.82;100105.22;5013885;28;19920;-86
2023/01/13 02:03:08;;;;;;;;;;;;;;;8.89;62.53;100105.22;5013728;28;20284;-86
2023/01/13 02:05:33;;;;;;;;;;;;;;;8.61;62.41;100113.13;5012733;28;20283;-87
2023/01/13 02:07:59;;;;;;;;;;;;;;;8.46;62.32;100110.50;5013960;28;19910;-86
2023/01/13 02:13:27;;;;;;;;;;;;;;;8.51;61.97;100111.38;5014281;28;19916;-86
2023/01/13 02:16:11;;;;;;;;;;;;;;;8.10;62.61;100099.94;5012068;28;19910;-85
2023/01/13 02:18:39;;;;;;;;;;;;;;;8.05;63.18;100099.06;5013285;28;19917;-88
2023/01/13 02:21:28;;;;;;;;;;;;;;;8.25;63.25;100099.09;5013765;28;19909;-87
2023/01/13 02:27:14;;;;;;;;;;;;;;;7.91;63.95;100101.66;5013229;28;19920;-86
2023/01/13 02:33:05;;;;;;;;;;;;;;;7.87;63.64;100105.13;5013229;28;20287;-86
2023/01/13 02:35:59;;;;;;;;;;;;;;;7.86;64.61;100106.00;4990227;28;19924;-87
2023/01/13 02:38:32;;;;;;;;;;;;;;;7.69;64.57;100109.47;4999247;28;20402;-86
2023/01/13 02:44:05;;;;;;;;;;;;;;;7.82;64.44;100107.75;5013455;28;20368;-86
2023/01/13 02:44:09;;;;;;;;;;;;;;;8.04;63.95;100106.03;5012676;28;19921;-86
2023/01/13 02:46:37;;;;;;;;;;;;;;;7.90;64.24;100110.41;5013243;28;19913;-86
2023/01/13 02:49:05;;;;;;;;;;;;;;;7.85;64.44;100110.38;5012738;28;20399;-86
2023/01/13 02:51:31;;;;;;;;;;;;;;;7.51;65.20;100106.78;5012727;28;19913;-86
2023/01/13 02:54:06;;;;;;;;;;;;;;;7.37;66.04;100103.19;5012959;28;19959;-86
2023/01/13 02:56:33;;;;;;;;;;;;;;;7.57;66.21;100105.91;5012869;28;19992;-86
2023/01/13 02:58:59;;;;;;;;;;;;;;;7.46;66.21;100108.47;5012810;28;20296;-85
2023/01/13 03:01:24;;;;;;;;;;;;;;;7.42;65.13;100109.38;5012649;28;19913;-86
2023/01/13 03:03:49;;;;;;;;;;;;;;;7.52;66.02;100114.66;5012987;28;19913;-87
2023/01/13 03:06:15;;;;;;;;;;;;;;;7.65;65.72;100118.19;5013698;28;19936;-87
2023/01/13 03:08:46;;;;;;;;;;;;;;;7.31;65.76;100112.81;5013203;28;19920;-87
2023/01/13 03:11:13;;;;;;;;;;;;;;;7.26;66.32;100108.38;5012794;28;19914;-87
2023/01/13 03:13:39;;;;;;;;;;;;;;;7.34;65.39;100111.94;5011705;28;20351;-87
2023/01/13 03:16:19;;;;;;;;;;;;;;;7.63;65.65;100114.69;5012717;28;20012;-88
2023/01/13 03:18:50;;;;;;;;;;;;;;;7.43;66.28;100112.00;5012408;28;19921;-87
2023/01/13 03:21:19;;;;;;;;;;;;;;;7.43;66.07;100113.72;5011281;28;19913;-87
2023/01/13 03:23:50;;;;;;;;;;;;;;;7.27;66.23;100107.53;5012934;28;19960;-88
2023/01/13 03:26:30;;;;;;;;;;;;;;;7.29;66.40;100111.94;5012504;28;19920;-87
2023/01/13 03:29:01;;;;;;;;;;;;;;;7.28;66.88;100112.78;5012535;28;20010;-87
2023/01/13 03:34:36;;;;;;;;;;;;;;;7.50;66.37;100119.00;5007335;28;19975;-85
2023/01/13 03:37:02;;;;;;;;;;;;;;;7.75;65.80;100118.22;5012626;28;20407;-85
2023/01/13 03:39:30;;;;;;;;;;;;;;;7.43;66.49;100127.75;5012303;28;19963;-85
2023/01/13 03:42:00;;;;;;;;;;;;;;;7.52;65.84;100122.53;5012463;28;19980;-84
2023/01/13 03:44:32;;;;;;;;;;;;;;;7.43;65.90;100124.22;5012469;28;19913;-85
2023/01/13 03:47:10;;;;;;;;;;;;;;;7.48;65.80;100126.00;5012560;28;19921;-85
2023/01/13 03:49:43;;;;;;;;;;;;;;;7.50;66.30;100128.63;5013132;28;19910;-84
2023/01/13 03:52:11;;;;;;;;;;;;;;;7.65;65.45;100122.59;5016123;28;19914;-85
2023/01/13 03:54:40;;;;;;;;;;;;;;;7.59;65.37;100122.56;5015901;28;19909;-84
2023/01/13 03:57:08;;;;;;;;;;;;;;;7.47;65.86;100126.00;5015877;28;19914;-85
2023/01/13 03:59:37;;;;;;;;;;;;;;;7.75;66.17;100129.59;5016011;28;20008;-85
2023/01/13 04:02:06;;;;;;;;;;;;;;;7.56;65.68;100138.28;5015919;28;19917;-86
2023/01/13 04:04:34;;;;;;;;;;;;;;;7.38;66.63;100144.31;5015946;28;19913;-86
2023/01/13 04:07:14;;;;;;;;;;;;;;;7.41;66.79;100136.47;5016288;28;19917;-86
2023/01/13 04:09:54;;;;;;;;;;;;;;;7.45;66.81;100133.00;5016330;28;20434;-87
2023/01/13 04:12:59;;;;;;;;;;;;;;;7.37;66.75;100137.31;5015725;28;19918;-85
2023/01/13 04:15:23;;;;;;;;;;;;;;;7.42;66.61;100146.09;5015451;28;19972;-85
2023/01/13 04:17:48;;;;;;;;;;;;;;;7.26;66.88;100138.16;5015747;28;19925;-85
2023/01/13 04:20:14;;;;;;;;;;;;;;;7.34;67.13;100144.31;5015460;28;20010;-86
2023/01/13 04:22:39;;;;;;;;;;;;;;;7.29;67.15;100137.28;5014254;28;20367;-84
2023/01/13 04:25:05;;;;;;;;;;;;;;;7.11;67.29;100146.81;5016165;28;19954;-84
2023/01/13 04:27:30;;;;;;;;;;;;;;;7.21;66.94;100141.59;5015372;28;20375;-85
2023/01/13 04:32:58;;;;;;;;;;;;;;;7.40;65.98;100140.84;5015605;28;19940;-85
2023/01/13 04:38:53;;;;;;;;;;;;;;;7.60;65.76;100148.81;5014755;28;20054;-84
2023/01/13 04:41:18;;;;;;;;;;;;;;;7.30;66.70;100146.91;5015668;28;19920;-85
2023/01/13 04:43:44;;;;;;;;;;;;;;;7.35;66.58;100147.81;5015842;28;19913;-84
2023/01/13 04:46:09;;;;;;;;;;;;;;;7.49;66.32;100150.50;5015744;28;19917;-86
2023/01/13 04:48:34;;;;;;;;;;;;;;;7.38;66.39;100155.69;5013532;28;19914;-83
2023/01/13 04:50:59;;;;;;;;;;;;;;;7.51;66.11;100165.41;5015618;28;19913;-83
2023/01/13 04:53:25;;;;;;;;;;;;;;;7.60;66.21;100161.06;5015310;28;19914;-83
2023/01/13 04:55:51;;;;;;;;;;;;;;;7.74;65.73;100164.63;5014927;28;19921;-84
2023/01/13 04:58:16;;;;;;;;;;;;;;;7.78;65.08;100163.75;5015269;28;19920;-84
2023/01/13 05:00:42;;;;;;;;;;;;;;;7.78;65.58;100162.88;5014005;28;19914;-83
2023/01/13 05:03:07;;;;;;;;;;;;;;;7.78;65.62;100161.13;5014107;28;19918;-83
2023/01/13 05:05:32;;;;;;;;;;;;;;;7.84;65.25;100165.53;5015074;28;20012;-83
2023/01/13 05:16:58;;;;;;;;;;;;;;;7.44;66.03;100170.59;5014805;28;19921;-85
2023/01/13 05:19:34;;;;;;;;;;;;;;;7.98;65.21;100176.09;5014975;28;19944;-85
2023/01/13 05:27:28;;;;;;;;;;;;;;;7.89;64.35;100188.34;5013502;28;20459;-84
2023/01/13 05:29:59;;;;;;;;;;;;;;;7.92;64.40;100190.06;4996174;28;19945;-83
2023/01/13 05:32:26;;;;;;;;;;;;;;;7.77;64.83;100188.28;5001415;28;20013;-84
2023/01/13 05:34:52;;;;;;;;;;;;;;;7.89;64.61;100197.94;4995020;28;19917;-85
2023/01/13 05:37:27;;;;;;;;;;;;;;;7.87;64.81;100190.06;4990680;28;19921;-83
2023/01/13 05:45:20;;;;;;;;;;;;;;;7.82;65.41;100191.78;4994474;28;19960;-86
2023/01/13 05:50:49;;;;;;;;;;;;;;;7.74;65.37;100183.03;4994524;28;19949;-84
2023/01/13 05:56:17;;;;;;;;;;;;;;;7.36;66.15;100196.81;4994432;28;20013;-85
2023/01/13 05:58:42;;;;;;;;;;;;;;;7.50;66.32;100191.66;4994026;28;20380;-85
2023/01/13 06:01:08;;;;;;;;;;;;;;;7.51;66.41;100204.78;4994256;28;19914;-86
2023/01/13 06:03:33;;;;;;;;;;;;;;;7.75;65.47;100208.38;4994407;28;19988;-89
2023/01/13 06:09:01;;;;;;;;;;;;;;;7.60;65.98;100209.22;4994471;28;19964;-86
2023/01/13 06:11:29;;;;;;;;;;;;;;;7.67;65.56;100212.72;5001463;28;20343;-89
2023/01/13 06:13:54;;;;;;;;;;;;;;;7.78;64.94;100210.16;4993405;28;19920;-88
2023/01/13 06:19:23;;;;;;;;;;;;;;;8.05;64.73;100210.28;4994085;28;19917;-87
2023/01/13 06:21:48;;;;;;;;;;;;;;;7.98;64.30;100220.75;4994022;28;19918;-86
2023/01/13 06:24:13;;;;;;;;;;;;;;;8.00;63.55;100219.91;4994004;28;19918;-86
2023/01/13 06:26:39;;;;;;;;;;;;;;;8.25;63.20;100222.63;4993861;28;20299;-86
2023/01/13 06:29:05;;;;;;;;;;;;;;;8.10;63.88;100228.69;4993777;28;19913;-88
2023/01/13 06:31:30;;;;;;;;;;;;;;;8.02;64.03;100223.41;4994690;28;19913;-88
2023/01/13 06:33:59;;;;;;;;;;;;;;;7.93;64.44;100228.63;4993859;28;19933;-87
2023/01/13 06:36:26;;;;;;;;;;;;;;;8.02;65.39;100233.03;4993559;28;19913;-87
2023/01/13 06:38:54;;;;;;;;;;;;;;;8.17;64.78;100235.72;4993762;28;20292;-89
2023/01/13 06:43:13;;;;;;;;;;;;;;;8.33;64.60;100234.00;5009040;28;20019;-88
2023/01/13 06:44:05;;;;;;;;;;;;;;;8.47;64.26;100230.59;4993416;28;19936;-87
2023/01/13 06:46:30;;;;;;;;;;;;;;;8.44;65.14;100231.44;4993963;28;20376;-89
2023/01/13 06:48:56;;;;;;;;;;;;;;;8.39;64.89;100228.78;4993617;28;19914;-90
2023/01/13 06:51:21;;;;;;;;;;;;;;;8.45;65.32;100227.06;4994266;28;20388;-89
2023/01/13 06:53:46;;;;;;;;;;;;;;;8.55;64.58;100227.06;4993436;28;19914;-89
2023/01/13 06:56:11;;;;;;;;;;;;;;;8.44;65.12;100233.22;4993711;28;19917;-89
2023/01/13 06:58:37;;;;;;;;;;;;;;;8.60;65.50;100230.63;4993843;28;20341;-86
2023/01/13 07:01:02;;;;;;;;;;;;;;;8.63;64.67;100232.34;4993364;28;20431;-88
2023/01/13 07:03:27;;;;;;;;;;;;;;;8.69;64.48;100237.63;4993047;28;19914;-85
2023/01/13 07:05:55;;;;;;;;;;;;;;;8.71;64.71;100238.53;4993534;28;19949;-87
2023/01/13 07:08:21;;;;;;;;;;;;;;;8.40;65.89;100248.94;4993448;28;19910;-88
2023/01/13 07:10:46;;;;;;;;;;;;;;;8.39;67.78;100255.06;4992942;28;19920;-87
2023/01/13 07:15:56;;;;;;;;;;;;;;;8.11;68.31;100254.09;4992848;28;19968;-87
2023/01/13 07:18:22;;;;;;;;;;;;;;;8.05;68.40;100259.34;4993293;28;19997;-87
2023/01/13 07:20:51;;;;;;;;;;;;;;;7.91;69.67;100259.28;5008523;28;19941;-88
2023/01/13 07:23:16;;;;;;;;;;;;;;;8.10;69.29;100261.97;4992943;28;19956;-86
2023/01/13 07:25:41;;;;;;;;;;;;;;;8.28;68.54;100259.41;4994414;28;19957;-86
2023/01/13 07:28:06;;;;;;;;;;;;;;;8.48;67.98;100254.25;4996999;28;19921;-86
2023/01/13 07:30:32;;;;;;;;;;;;;;;8.59;67.20;100251.66;5012357;28;20024;-86
2023/01/13 07:32:57;;;;;;;;;;;;;;;8.65;66.72;100262.19;4997615;28;19914;-86
2023/01/13 07:35:23;;;;;;;;;;;;;;;8.62;66.35;100256.91;4996718;28;20363;-86
2023/01/13 07:37:49;;;;;;;;;;;;;;;8.78;66.00;100258.66;4997019;28;20369;-86
2023/01/13 07:40:14;;;;;;;;;;;;;;;8.98;64.93;100268.34;4996884;28;19968;-85
2023/01/13 07:45:23;;;;;;;;;;;;;;;9.06;64.84;100263.09;4997267;28;20009;-86
2023/01/13 07:47:50;;;;;;;;;;;;;;;9.11;64.45;100270.13;4996937;28;20380;-86
2023/01/13 07:50:15;;;;;;;;;;;;;;;9.03;64.42;100260.47;4997324;28;19922;-87
2023/01/13 07:52:40;;;;;;;;;;;;;;;9.24;63.83;100271.00;4996681;28;20372;-86
2023/01/13 07:55:06;;;;;;;;;;;;;;;9.27;63.65;100272.75;4996552;28;19930;-88
2023/01/13 07:57:31;;;;;;;;;;;;;;;9.34;63.75;100273.63;4996440;28;19914;-86
2023/01/13 07:59:56;;;;;;;;;;;;;;;9.38;63.28;100278.88;4996724;28;19914;-85
2023/01/13 08:02:22;;;;;;;;;;;;;;;9.46;62.41;100274.47;4996736;28;19948;-86
2023/01/13 08:04:47;;;;;;;;;;;;;;;9.36;62.67;100278.00;4996583;28;19921;-88
2023/01/13 08:07:12;;;;;;;;;;;;;;;9.40;62.46;100282.38;4996281;28;20395;-88
2023/01/13 08:09:38;;;;;;;;;;;;;;;9.38;62.12;100283.28;4997278;28;19972;-89
2023/01/13 08:14:49;;;;;;;;;;;;;;;9.27;63.42;100281.50;4996292;28;19920;-87
2023/01/13 08:17:14;;;;;;;;;;;;;;;9.28;63.93;100285.00;4996088;28;19944;-86
2023/01/13 08:19:39;;;;;;;;;;;;;;;8.91;65.07;100283.25;4996054;28;19914;-87
2023/01/13 08:22:04;;;;;;;;;;;;;;;8.88;65.98;100278.00;4996011;28;19914;-85
2023/01/13 08:24:30;;;;;;;;;;;;;;;9.05;64.95;100274.47;4996043;28;20273;-86
2023/01/13 08:26:55;;;;;;;;;;;;;;;8.82;65.86;100280.63;4995691;28;19914;-88
2023/01/13 08:29:20;;;;;;;;;;;;;;;8.84;66.27;100281.50;4995895;28;19914;-86
2023/01/13 08:31:46;;;;;;;;;;;;;;;8.89;65.35;100284.13;4995860;28;19917;-87
2023/01/13 08:34:11;;;;;;;;;;;;;;;9.10;64.65;100291.19;4995623;28;20443;-86
2023/01/13 08:36:36;;;;;;;;;;;;;;;8.89;64.86;100287.63;4995318;28;19913;-86
2023/01/13 08:39:02;;;;;;;;;;;;;;;9.07;64.57;100291.19;4995798;28;19918;-86
2023/01/13 08:44:11;;;;;;;;;;;;;;;8.88;65.49;100292.88;4995522;28;19920;-86
2023/01/13 08:46:36;;;;;;;;;;;;;;;9.00;65.27;100305.19;4995380;28;20000;-86
2023/01/13 08:49:02;;;;;;;;;;;;;;;9.16;64.88;100296.44;4996180;28;19920;-86
2023/01/13 08:51:27;;;;;;;;;;;;;;;9.23;64.81;100298.19;4995507;28;19914;-86
2023/01/13 08:53:52;;;;;;;;;;;;;;;9.49;64.18;100299.94;4995239;28;20058;-86
2023/01/13 08:56:18;;;;;;;;;;;;;;;9.68;63.55;100299.03;4995651;28;20265;-86
2023/01/13 08:58:43;;;;;;;;;;;;;;;9.80;63.40;100289.34;4995323;28;20364;-86
2023/01/13 09:01:10;;;;;;;;;;;;;;;9.95;63.14;100289.31;4995026;28;20377;-86
2023/01/13 09:03:36;;;;;;;;;;;;;;;10.09;63.04;100291.03;4995448;28;19914;-86
2023/01/13 09:06:01;;;;;;;;;;;;;;;9.93;63.42;100285.81;4995498;28;19914;-87
2023/01/13 09:08:26;;;;;;;;;;;;;;;10.10;62.87;100276.94;4995328;28;20385;-87
2023/01/13 09:10:52;;;;;;;;;;;;;;;9.87;62.67;100283.19;4995144;28;19920;-86
2023/01/13 09:13:19;;;;;;;;;;;;;;;9.90;62.79;100277.91;4995180;28;19972;-86
2023/01/13 09:15:44;;;;;;;;;;;;;;;9.90;63.20;100271.75;4995163;28;19996;-86
2023/01/13 09:18:10;;;;;;;;;;;;;;;9.89;62.99;100275.28;4995522;28;20005;-87
2023/01/13 09:20:36;;;;;;;;;;;;;;;10.10;62.05;100269.03;4995197;28;20288;-86
2023/01/13 09:23:02;;;;;;;;;;;;;;;10.18;62.51;100272.53;4995052;28;20398;-86
2023/01/13 09:25:27;;;;;;;;;;;;;;;10.07;62.33;100267.31;4995259;28;19914;-87
2023/01/13 09:27:53;;;;;;;;;;;;;;;10.15;62.15;100264.66;4995220;28;19983;-86
2023/01/13 09:30:18;;;;;;;;;;;;;;;10.13;61.76;100264.66;4994717;28;19969;-87
2023/01/13 09:32:43;;;;;;;;;;;;;;;10.15;61.39;100262.88;4994725;28;19914;-86
2023/01/13 09:35:09;;;;;;;;;;;;;;;10.34;61.80;100260.19;4995152;28;19926;-86
2023/01/13 09:37:38;;;;;;;;;;;;;;;10.51;61.83;100263.59;4994617;28;20384;-86
2023/01/13 09:40:05;;;;;;;;;;;;;;;10.71;61.41;100262.63;4994978;28;19914;-87
2023/01/13 09:45:26;;;;;;;;;;;;;;;10.77;61.23;100248.47;4994614;28;19968;-87
2023/01/13 09:48:01;;;;;;;;;;;;;;;10.87;61.02;100250.19;4993855;28;19952;-87
2023/01/13 09:50:26;;;;;;;;;;;;;;;10.74;60.54;100255.53;5009833;28;20348;-87
2023/01/13 09:52:52;;;;;;;;;;;;;;;10.95;59.54;100252.75;4994188;28;20004;-87
2023/01/13 09:55:21;;;;;;;;;;;;;;;10.97;59.61;100245.69;4994794;28;19918;-86
2023/01/13 09:57:46;;;;;;;;;;;;;;;10.80;60.03;100246.72;4994806;28;19913;-86
2023/01/13 10:00:14;;;;;;;;;;;;;;;10.43;61.98;100239.03;4994388;28;19921;-86
2023/01/13 10:02:54;;;;;;;;;;;;;;;10.53;59.30;100240.75;4994370;28;19913;-88
2023/01/13 10:08:27;;;;;;;;;;;;;;;10.61;60.73;100237.16;4994509;28;19917;-86
2023/01/13 10:17:24;;;;;;;;;;;;;;;10.71;58.94;100228.31;4994143;28;19933;-86
2023/01/13 10:19:59;;;;;;;;;;;;;;;10.79;58.87;100222.97;4994292;28;19918;-84
2023/01/13 10:22:33;;;;;;;;;;;;;;;10.91;59.26;100209.69;4993589;28;20068;-88
2023/01/13 10:25:01;;;;;;;;;;;;;;;11.20;58.72;100211.19;5010160;28;19918;-90
2023/01/13 10:27:33;;;;;;;;;;;;;;;11.13;57.29;100205.09;5013763;28;19947;-91
2023/01/13 10:30:08;;;;;;;;;;;;;;;11.22;56.73;100207.66;5011810;28;19924;-90
2023/01/13 10:32:34;;;;;;;;;;;;;;;11.22;58.33;100202.38;5012262;28;20295;-92
2023/01/13 10:35:00;;;;;;;;;;;;;;;11.23;58.83;100204.13;5014038;28;19921;-87
2023/01/13 10:37:26;;;;;;;;;;;;;;;11.14;58.76;100196.28;5013100;28;19917;-88
2023/01/13 10:39:56;;;;;;;;;;;;;;;10.91;58.93;100199.13;5013225;28;19955;-87
2023/01/13 10:42:22;;;;;;;;;;;;;;;11.02;58.58;100197.25;5013551;28;20257;-86
2023/01/13 10:44:51;;;;;;;;;;;;;;;11.05;59.04;100191.97;5013446;28;19963;-85
2023/01/13 10:47:21;;;;;;;;;;;;;;;10.89;60.27;100188.59;5013315;28;19919;-88
2023/01/13 10:53:14;;;;;;;;;;;;;;;11.13;60.57;100176.03;5013107;28;20411;-88
2023/01/13 10:55:40;;;;;;;;;;;;;;;11.34;59.77;100166.16;5012965;28;20020;-87
2023/01/13 11:01:17;;;;;;;;;;;;;;;10.98;57.51;100177.06;5013053;28;19916;-89
2023/01/13 11:03:44;;;;;;;;;;;;;;;11.17;58.53;100168.97;5012683;28;19914;-88
2023/01/13 11:06:18;;;;;;;;;;;;;;;11.56;57.83;100169.44;5013047;28;19922;-88
2023/01/13 11:11:48;;;;;;;;;;;;;;;11.35;57.75;100165.25;5013468;28;20323;-88
2023/01/13 11:16:59;;;;;;;;;;;;;;;11.29;58.58;100168.84;5012933;28;20330;-87
2023/01/13 11:19:27;;;;;;;;;;;;;;;11.37;59.43;100169.66;5012423;28;19909;-87
2023/01/13 11:21:56;;;;;;;;;;;;;;;11.39;59.42;100162.56;5012883;28;19913;-87
2023/01/13 11:24:39;;;;;;;;;;;;;;;11.39;58.94;100159.94;5012738;28;19971;-87
2023/01/13 11:27:06;;;;;;;;;;;;;;;11.66;56.86;100160.50;5012459;28;19914;-88
2023/01/13 11:29:34;;;;;;;;;;;;;;;11.65;56.83;100157.00;5012599;28;19913;-88
2023/01/13 11:32:04;;;;;;;;;;;;;;;11.29;57.89;100160.91;5012216;28;19947;-86
2023/01/13 11:34:38;;;;;;;;;;;;;;;11.37;57.27;100155.53;5012878;28;19917;-85
2023/01/13 11:40:15;;;;;;;;;;;;;;;11.55;56.55;100149.19;5012643;28;20347;-84
2023/01/13 11:42:45;;;;;;;;;;;;;;;11.61;57.19;100155.28;5012263;28;19921;-84
2023/01/13 11:45:29;;;;;;;;;;;;;;;11.69;57.77;100155.19;5013307;28;19993;-85
2023/01/13 11:47:57;;;;;;;;;;;;;;;11.79;57.93;100154.19;5012740;28;19916;-87
2023/01/13 11:50:41;;;;;;;;;;;;;;;12.14;56.43;100152.88;5012235;28;20380;-87
2023/01/13 11:53:10;;;;;;;;;;;;;;;12.02;58.26;100154.78;5012687;28;19916;-87
2023/01/13 11:55:48;;;;;;;;;;;;;;;12.10;57.36;100156.44;5012349;28;19913;-87
2023/01/13 11:58:25;;;;;;;;;;;;;;;11.81;58.82;100160.31;5012364;28;19910;-87
2023/01/13 12:00:56;;;;;;;;;;;;;;;11.57;59.63;100156.22;5012237;28;19914;-87
2023/01/13 12:03:25;;;;;;;;;;;;;;;11.65;59.08;100154.34;5012344;28;19961;-88
2023/01/13 12:05:50;;;;;;;;;;;;;;;11.77;58.62;100155.97;5012383;28;19913;-88
2023/01/13 12:08:17;;;;;;;;;;;;;;;11.63;58.41;100148.22;5012022;28;19916;-89
2023/01/13 12:10:46;;;;;;;;;;;;;;;11.61;60.67;100143.84;5013102;28;19964;-88
2023/01/13 12:13:11;;;;;;;;;;;;;;;11.76;59.95;100141.00;5015764;28;19972;-89
2023/01/13 12:15:49;;;;;;;;;;;;;;;11.66;60.04;100139.34;5014423;28;19909;-89
2023/01/13 12:18:24;;;;;;;;;;;;;;;11.86;59.02;100144.38;5016082;28;19996;-90
2023/01/13 12:20:57;;;;;;;;;;;;;;;11.74;59.66;100137.50;5016292;28;19917;-89
2023/01/13 12:23:29;;;;;;;;;;;;;;;11.79;60.37;100140.97;5016050;28;19921;-88
2023/01/13 12:25:58;;;;;;;;;;;;;;;11.86;59.66;100144.38;5015525;28;20371;-88
2023/01/13 12:28:36;;;;;;;;;;;;;;;11.76;59.41;100140.13;5015944;28;20013;-88
2023/01/13 12:31:02;;;;;;;;;;;;;;;11.42;60.33;100136.13;5015872;28;19913;-87
2023/01/13 12:33:43;;;;;;;;;;;;;;;11.47;59.74;100136.06;5015623;28;19914;-87
2023/01/13 12:36:14;;;;;;;;;;;;;;;11.74;59.55;100132.22;5016038;28;19924;-89
2023/01/13 12:38:51;;;;;;;;;;;;;;;11.76;59.66;100140.13;5015590;28;20012;-86
2023/01/13 12:41:35;;;;;;;;;;;;;;;11.96;59.48;100143.41;5015769;28;19914;-86
2023/01/13 12:44:16;;;;;;;;;;;;;;;12.08;58.99;100142.38;5015187;28;19914;-87
2023/01/13 12:46:44;;;;;;;;;;;;;;;11.96;59.76;100140.78;5015521;28;20378;-88
2023/01/13 12:49:20;;;;;;;;;;;;;;;12.00;59.11;100139.84;5015364;28;19913;-88
2023/01/13 12:51:54;;;;;;;;;;;;;;;11.96;59.78;100137.28;5015863;28;19920;-87
2023/01/13 12:54:29;;;;;;;;;;;;;;;11.46;60.40;100135.22;5014812;28;19951;-87
2023/01/13 12:56:54;;;;;;;;;;;;;;;11.41;60.57;100139.66;5015205;28;20360;-86
2023/01/13 12:59:20;;;;;;;;;;;;;;;11.32;60.02;100152.97;5015070;28;19913;-85
2023/01/13 13:01:50;;;;;;;;;;;;;;;11.45;59.74;100140.50;5014681;28;19913;-89
2023/01/13 13:04:19;;;;;;;;;;;;;;;10.98;61.46;100141.88;5014773;28;19917;-87
2023/01/13 13:06:51;;;;;;;;;;;;;;;10.96;61.51;100146.31;5014774;28;19944;-87
2023/01/13 13:09:25;;;;;;;;;;;;;;;11.16;61.43;100143.47;5014860;28;20430;-87
2023/01/13 13:14:40;;;;;;;;;;;;;;;11.40;60.09;100144.94;5014823;28;19963;-90
2023/01/13 13:17:26;;;;;;;;;;;;;;;11.19;60.57;100151.34;5014985;28;19956;-88
2023/01/13 13:19:51;;;;;;;;;;;;;;;11.09;61.05;100148.81;5005926;28;19960;-87
2023/01/13 13:22:21;;;;;;;;;;;;;;;11.24;60.74;100153.03;5013586;28;19953;-92
2023/01/13 13:24:49;;;;;;;;;;;;;;;11.37;60.45;100155.53;5014584;28;19917;-92
2023/01/13 13:27:16;;;;;;;;;;;;;;;11.42;59.91;100151.97;5014896;28;19918;-93
2023/01/13 13:29:45;;;;;;;;;;;;;;;11.46;60.14;100158.09;5013466;28;19986;-92
2023/01/13 13:32:25;;;;;;;;;;;;;;;11.43;59.97;100156.38;5013294;28;20012;-92
2023/01/13 13:35:04;;;;;;;;;;;;;;;11.46;60.24;100152.81;5013322;28;20342;-90
2023/01/13 13:52:05;;;;;;;;;;;;;;;11.37;61.74;100160.84;5014928;28;19948;-92
2023/01/13 13:54:31;;;;;;;;;;;;;;;11.50;61.12;100151.88;5012676;28;19953;-93
2023/01/13 13:59:59;;;;;;;;;;;;;;;11.51;61.07;100158.94;5014755;28;19916;-92
2023/01/13 14:02:29;;;;;;;;;;;;;;;11.42;61.35;100153.75;5016228;28;20000;-93
2023/01/13 14:05:13;;;;;;;;;;;;;;;11.37;61.86;100166.13;5014731;28;20368;-96
2023/01/13 14:07:46;;;;;;;;;;;;;;;11.18;62.26;100161.03;5017647;28;19920;-95
2023/01/13 14:10:23;;;;;;;;;;;;;;;11.11;63.18;100159.34;5015386;28;19918;-86
2023/01/13 14:12:49;;;;;;;;;;;;;;;11.03;64.02;100169.09;5014023;28;19913;-87
2023/01/13 14:15:24;;;;;;;;;;;;;;;10.82;64.58;100170.19;5013814;28;20487;-90
2023/01/13 14:20:53;;;;;;;;;;;;;;;10.78;64.98;100171.09;5013985;28;19916;-92
2023/01/13 14:23:21;;;;;;;;;;;;;;;10.84;64.28;100181.59;5012168;28;19913;-86
2023/01/13 14:25:48;;;;;;;;;;;;;;;10.99;64.12;100180.59;5013821;28;19913;-91
2023/01/13 14:31:16;;;;;;;;;;;;;;;10.90;63.94;100186.81;5014187;28;19920;-89
2023/01/13 14:33:44;;;;;;;;;;;;;;;10.97;63.96;100188.53;5012197;28;20360;-89
2023/01/13 14:36:09;;;;;;;;;;;;;;;10.82;64.08;100181.59;5013625;28;19914;-95
2023/01/13 14:38:34;;;;;;;;;;;;;;;10.99;64.05;100188.50;5014449;28;19936;-94
2023/01/13 14:41:21;;;;;;;;;;;;;;;11.02;63.79;100194.63;5018965;28;19913;-95
2023/01/13 14:43:48;;;;;;;;;;;;;;;10.86;64.08;100190.34;5018254;28;19944;-96
2023/01/13 14:46:14;;;;;;;;;;;;;;;10.73;64.49;100189.59;5013842;28;19944;-90
2023/01/13 14:48:43;;;;;;;;;;;;;;;10.84;64.46;100197.41;5014666;28;19917;-96
2023/01/13 14:51:29;;;;;;;;;;;;;;;10.71;64.88;100189.59;5012785;28;19949;-96
2023/01/13 14:53:56;;;;;;;;;;;;;;;10.79;64.85;100189.53;5014030;28;19980;-96
2023/01/13 14:56:41;;;;;;;;;;;;;;;10.80;65.35;100193.03;5012940;28;19917;-96